createdAt,value
2023-11-08T00:00:07.258Z,4.80
2023-11-08T00:02:39.940Z,5.30
2023-11-08T00:05:07.460Z,6.00
2023-11-08T00:07:33.994Z,6.37
2023-11-08T00:10:00.757Z,6.30
2023-11-08T00:12:27.293Z,6.60
2023-11-08T00:14:53.906Z,6.43
2023-11-08T00:17:21.068Z,6.40
2023-11-08T00:19:47.664Z,6.97
2023-11-08T00:22:14.126Z,7.33
2023-11-08T00:24:40.629Z,6.67
2023-11-08T00:27:07.117Z,6.60
2023-11-08T00:29:33.759Z,7.40
2023-11-08T00:32:00.362Z,7.23
2023-11-08T00:34:26.950Z,7.37
2023-11-08T00:36:53.456Z,8.20
2023-11-08T00:39:20.404Z,7.37
2023-11-08T00:41:47.527Z,7.40
2023-11-08T00:44:14.530Z,7.83
2023-11-08T00:46:41.714Z,8.87
2023-11-08T00:49:08.267Z,7.83
2023-11-08T00:51:36.301Z,7.80
2023-11-08T00:54:03.656Z,7.93
2023-11-08T00:56:30.243Z,8.57
2023-11-08T00:58:56.814Z,8.37
2023-11-08T01:01:24.054Z,7.67
2023-11-08T01:03:51.665Z,8.03
2023-11-08T01:06:18.622Z,8.83
2023-11-08T01:08:45.146Z,8.97
2023-11-08T01:11:11.676Z,8.70
2023-11-08T01:13:38.233Z,10.00
2023-11-08T01:16:07.068Z,9.27
2023-11-08T01:18:35.764Z,10.50
2023-11-08T01:21:03.331Z,10.63
2023-11-08T01:23:29.866Z,11.17
2023-11-08T01:25:56.482Z,11.77
2023-11-08T01:28:22.996Z,10.40
2023-11-08T01:30:49.779Z,11.20
2023-11-08T01:33:16.740Z,10.97
2023-11-08T01:35:45.006Z,11.50
2023-11-08T01:38:11.513Z,11.17
2023-11-08T01:40:37.978Z,11.10
2023-11-08T01:43:05.437Z,12.07
2023-11-08T01:45:31.943Z,11.20
2023-11-08T01:47:59.532Z,11.10
2023-11-08T01:50:26.357Z,11.07
2023-11-08T01:52:53.198Z,11.97
2023-11-08T01:55:20.474Z,9.97
2023-11-08T01:57:47.519Z,10.80
2023-11-08T02:00:15.731Z,10.37
2023-11-08T02:02:42.519Z,10.20
2023-11-08T02:05:09.384Z,9.57
2023-11-08T02:07:36.106Z,9.97
2023-11-08T02:10:04.747Z,11.77
2023-11-08T02:12:33.724Z,9.03
2023-11-08T02:15:07.472Z,11.23
2023-11-08T02:17:34.007Z,10.23
2023-11-08T02:20:04.528Z,9.63
2023-11-08T02:22:31.582Z,9.37
2023-11-08T02:24:58.183Z,8.70
2023-11-08T02:27:24.814Z,9.50
2023-11-08T02:29:51.368Z,10.30
2023-11-08T02:32:17.983Z,10.13
2023-11-08T02:34:45.095Z,8.10
2023-11-08T02:37:11.624Z,8.40
2023-11-08T02:39:38.316Z,8.33
2023-11-08T02:42:04.994Z,8.90
2023-11-08T02:44:32.434Z,8.17
2023-11-08T02:46:59.251Z,8.70
2023-11-08T02:49:31.983Z,9.87
2023-11-08T02:51:59.048Z,8.93
2023-11-08T02:54:27.095Z,9.00
2023-11-08T02:56:53.989Z,7.70
2023-11-08T02:59:21.397Z,9.10
2023-11-08T03:01:49.632Z,8.93
2023-11-08T03:04:16.995Z,8.67
2023-11-08T03:06:44.968Z,9.27
2023-11-08T03:09:12.246Z,9.20
2023-11-08T03:11:39.448Z,9.00
2023-11-08T03:14:10.210Z,8.93
2023-11-08T03:16:37.777Z,9.20
2023-11-08T03:19:04.719Z,8.93
2023-11-08T03:21:31.598Z,8.33
2023-11-08T03:23:59.323Z,8.07
2023-11-08T03:26:25.812Z,8.03
2023-11-08T03:28:52.379Z,7.60
2023-11-08T03:31:19.139Z,7.90
2023-11-08T03:33:46.724Z,7.63
2023-11-08T03:36:13.265Z,7.43
2023-11-08T03:38:39.765Z,7.70
2023-11-08T03:41:06.315Z,7.03
2023-11-08T03:43:33.097Z,8.03
2023-11-08T03:45:59.603Z,7.07
2023-11-08T03:48:26.153Z,7.37
2023-11-08T03:50:52.690Z,8.00
2023-11-08T03:53:19.200Z,7.13
2023-11-08T03:55:45.729Z,7.07
2023-11-08T03:58:12.803Z,8.07
2023-11-08T04:00:39.308Z,7.30
2023-11-08T04:03:05.819Z,7.27
2023-11-08T04:05:32.369Z,8.30
2023-11-08T04:07:59.020Z,7.77
2023-11-08T04:10:25.524Z,7.30
2023-11-08T04:12:52.216Z,8.07
2023-11-08T04:15:19.670Z,7.60
2023-11-08T04:17:46.279Z,7.50
2023-11-08T04:20:13.560Z,7.47
2023-11-08T04:22:43.792Z,7.27
2023-11-08T04:25:12.226Z,7.13
2023-11-08T04:27:39.533Z,7.60
2023-11-08T04:30:06.544Z,6.70
2023-11-08T04:32:33.459Z,8.20
2023-11-08T04:34:59.944Z,7.23
2023-11-08T04:37:26.459Z,7.77
2023-11-08T04:39:53.122Z,7.30
2023-11-08T04:42:20.343Z,8.70
2023-11-08T04:44:48.402Z,7.77
2023-11-08T04:47:19.348Z,7.20
2023-11-08T04:49:49.686Z,7.90
2023-11-08T04:52:17.170Z,8.70
2023-11-08T04:54:54.534Z,8.10
2023-11-08T04:57:22.162Z,7.90
2023-11-08T04:59:50.333Z,8.13
2023-11-08T05:02:20.137Z,8.27
2023-11-08T05:04:47.083Z,8.70
2023-11-08T05:07:14.066Z,7.90
2023-11-08T05:09:44.972Z,9.27
2023-11-08T05:12:13.257Z,9.00
2023-11-08T05:14:39.966Z,9.63
2023-11-08T05:17:06.494Z,10.27
2023-11-08T05:19:34.288Z,10.20
2023-11-08T05:22:01.045Z,10.03
2023-11-08T05:24:28.927Z,10.17
2023-11-08T05:26:56.103Z,9.30
2023-11-08T05:29:22.807Z,9.37
2023-11-08T05:31:51.941Z,10.87
2023-11-08T05:34:20.338Z,10.60
2023-11-08T05:36:47.168Z,10.30
2023-11-08T05:39:14.876Z,11.10
2023-11-08T05:41:41.439Z,10.00
2023-11-08T05:44:07.879Z,10.50
2023-11-08T05:46:34.492Z,10.20
2023-11-08T05:49:01.498Z,8.63
2023-11-08T05:51:29.163Z,10.90
2023-11-08T05:53:55.797Z,9.60
2023-11-08T05:56:23.267Z,9.50
2023-11-08T05:58:49.723Z,9.73
2023-11-08T06:01:16.692Z,8.47
2023-11-08T06:03:43.766Z,9.60
2023-11-08T06:06:11.169Z,9.43
2023-11-08T06:08:38.093Z,8.90
2023-11-08T06:11:08.691Z,8.20
2023-11-08T06:13:36.464Z,8.13
2023-11-08T06:16:03.581Z,8.70
2023-11-08T06:18:32.295Z,8.37
2023-11-08T06:20:59.035Z,8.67
2023-11-08T06:23:26.034Z,7.53
2023-11-08T06:25:52.593Z,9.60
2023-11-08T06:28:19.417Z,8.47
2023-11-08T06:30:45.997Z,8.20
2023-11-08T06:33:13.134Z,8.27
2023-11-08T06:35:41.804Z,7.50
2023-11-08T06:38:08.699Z,8.13
2023-11-08T06:40:35.549Z,7.00
2023-11-08T06:43:03.386Z,7.90
2023-11-08T06:45:31.900Z,7.30
2023-11-08T06:47:58.499Z,7.23
2023-11-08T06:50:24.996Z,7.50
2023-11-08T06:52:51.656Z,7.57
2023-11-08T06:55:23.322Z,7.10
2023-11-08T06:57:58.737Z,6.57
2023-11-08T07:00:25.515Z,6.10
2023-11-08T07:02:52.082Z,6.60
2023-11-08T07:05:24.997Z,5.83
2023-11-08T07:07:56.753Z,5.87
2023-11-08T07:10:23.290Z,5.63
2023-11-08T07:12:49.790Z,6.40
2023-11-08T07:15:16.303Z,6.63
2023-11-08T07:17:43.053Z,6.90
2023-11-08T07:20:10.366Z,6.17
2023-11-08T07:22:37.164Z,6.23
2023-11-08T07:25:04.489Z,6.30
2023-11-08T07:27:31.535Z,6.77
2023-11-08T07:29:58.128Z,6.13
2023-11-08T07:32:24.669Z,5.87
2023-11-08T07:34:53.414Z,6.23
2023-11-08T07:37:19.885Z,6.60
2023-11-08T07:39:46.518Z,6.87
2023-11-08T07:42:13.262Z,6.60
2023-11-08T07:44:39.771Z,6.80
2023-11-08T07:47:06.388Z,5.47
2023-11-08T07:49:32.995Z,6.10
2023-11-08T07:52:01.564Z,6.90
2023-11-08T07:54:28.179Z,6.60
2023-11-08T07:56:54.760Z,6.90
2023-11-08T07:59:21.456Z,7.63
2023-11-08T08:01:48.979Z,7.37
2023-11-08T08:04:15.667Z,7.00
2023-11-08T08:06:42.459Z,7.23
2023-11-08T08:09:15.875Z,7.37
2023-11-08T08:11:46.527Z,7.67
2023-11-08T08:14:13.844Z,7.60
2023-11-08T08:16:40.928Z,7.10
2023-11-08T08:19:07.867Z,8.17
2023-11-08T08:21:34.452Z,7.87
2023-11-08T08:24:07.043Z,7.97
2023-11-08T08:26:34.765Z,7.50
2023-11-08T08:29:02.463Z,6.87
2023-11-08T08:31:29.198Z,7.47
2023-11-08T08:33:58.275Z,7.53
2023-11-08T08:36:24.985Z,6.50
2023-11-08T08:38:51.590Z,7.07
2023-11-08T08:41:19.313Z,7.33
2023-11-08T08:43:45.931Z,7.13
2023-11-08T08:46:12.552Z,6.50
2023-11-08T08:48:39.261Z,6.67
2023-11-08T08:51:05.782Z,7.27
2023-11-08T08:53:32.527Z,6.30
2023-11-08T08:55:59.017Z,8.80
2023-11-08T08:58:25.526Z,7.80
2023-11-08T09:00:52.059Z,7.10
2023-11-08T09:03:18.758Z,7.90
2023-11-08T09:05:45.479Z,8.50
2023-11-08T09:08:12.040Z,8.30
2023-11-08T09:10:38.728Z,8.70
2023-11-08T09:13:06.426Z,8.60
2023-11-08T09:15:33.591Z,9.53
2023-11-08T09:18:00.352Z,8.93
2023-11-08T09:20:27.359Z,8.77
2023-11-08T09:22:53.869Z,9.50
2023-11-08T09:25:20.464Z,9.53
2023-11-08T09:27:47.266Z,8.83
2023-11-08T09:30:14.172Z,9.20
2023-11-08T09:32:40.670Z,9.47
2023-11-08T09:35:08.096Z,9.30
2023-11-08T09:37:34.851Z,8.90
2023-11-08T09:40:01.505Z,9.17
2023-11-08T09:42:31.305Z,9.63
2023-11-08T09:44:59.916Z,8.63
2023-11-08T09:47:27.120Z,9.30
2023-11-08T09:49:55.960Z,9.30
2023-11-08T09:52:23.420Z,7.80
2023-11-08T09:54:50.964Z,8.87
2023-11-08T09:57:19.754Z,9.40
2023-11-08T09:59:46.641Z,9.33
2023-11-08T10:02:16.787Z,9.10
2023-11-08T10:04:46.113Z,9.27
2023-11-08T10:07:14.295Z,9.70
2023-11-08T10:09:41.573Z,8.50
2023-11-08T10:12:09.633Z,8.73
2023-11-08T10:14:45.178Z,8.43
2023-11-08T10:17:31.814Z,8.80
2023-11-08T10:20:00.372Z,8.47
2023-11-08T10:22:27.612Z,9.40
2023-11-08T10:25:01.879Z,8.50
2023-11-08T10:27:30.072Z,7.40
2023-11-08T10:30:20.221Z,7.93
2023-11-08T10:32:47.882Z,8.60
2023-11-08T10:35:21.186Z,8.93
2023-11-08T10:37:51.214Z,9.73
2023-11-08T10:40:18.697Z,7.80
2023-11-08T10:42:52.729Z,7.83
2023-11-08T10:45:22.562Z,8.60
2023-11-08T10:47:49.524Z,7.50
2023-11-08T10:50:17.333Z,7.83
2023-11-08T10:52:45.983Z,7.13
2023-11-08T10:55:13.102Z,7.23
2023-11-08T10:57:43.337Z,7.47
2023-11-08T11:00:10.495Z,6.67
2023-11-08T11:02:44.097Z,7.23
2023-11-08T11:05:11.660Z,6.67
2023-11-08T11:07:42.891Z,7.50
2023-11-08T11:10:10.838Z,7.00
2023-11-08T11:13:01.625Z,6.70
2023-11-08T11:15:40.284Z,7.50
2023-11-08T11:18:13.017Z,6.73
2023-11-08T11:20:45.973Z,7.43
2023-11-08T11:23:31.979Z,6.80
2023-11-08T11:25:58.484Z,6.20
2023-11-08T11:28:47.598Z,7.00
2023-11-08T11:31:34.295Z,6.60
2023-11-08T11:34:02.289Z,6.60
2023-11-08T11:37:07.109Z,6.40
2023-11-08T11:39:35.868Z,7.40
2023-11-08T11:42:14.721Z,6.47
2023-11-08T11:44:43.937Z,5.97
2023-11-08T11:47:12.544Z,5.70
2023-11-08T11:49:44.522Z,6.13
2023-11-08T11:52:11.251Z,6.10
2023-11-08T11:54:38.011Z,7.07
2023-11-08T11:57:04.865Z,6.87
2023-11-08T11:59:31.350Z,5.83
2023-11-08T12:01:58.151Z,6.40
2023-11-08T12:04:24.990Z,6.50
2023-11-08T12:06:51.617Z,5.97
2023-11-08T12:09:18.310Z,5.73
2023-11-08T12:11:49.366Z,5.50
2023-11-08T12:14:22.439Z,6.73
2023-11-08T12:16:51.818Z,5.87
2023-11-08T12:19:19.073Z,5.30
2023-11-08T12:21:46.518Z,6.20
2023-11-08T12:24:13.729Z,5.73
2023-11-08T12:26:40.575Z,5.77
2023-11-08T12:29:07.420Z,6.00
2023-11-08T12:31:36.026Z,5.80
2023-11-08T12:34:06.921Z,5.53
2023-11-08T12:36:40.780Z,5.53
2023-11-08T12:39:14.218Z,5.50
2023-11-08T12:41:43.293Z,6.10
2023-11-08T12:44:09.936Z,5.87
2023-11-08T12:46:47.481Z,5.50
2023-11-08T12:49:19.191Z,5.10
2023-11-08T12:51:47.609Z,5.17
2023-11-08T12:54:15.805Z,5.83
2023-11-08T12:56:43.129Z,5.03
2023-11-08T12:59:15.758Z,5.10
2023-11-08T13:01:42.970Z,4.77
2023-11-08T13:04:10.399Z,5.20
2023-11-08T13:06:37.235Z,4.80
2023-11-08T13:09:05.279Z,5.47
2023-11-08T13:11:32.690Z,4.93
2023-11-08T13:13:59.855Z,4.57
2023-11-08T13:16:26.346Z,5.10
2023-11-08T13:18:53.191Z,4.83
2023-11-08T13:21:19.908Z,4.83
2023-11-08T13:24:02.188Z,4.83
2023-11-08T13:26:34.016Z,4.73
2023-11-08T13:29:01.435Z,5.00
2023-11-08T13:31:27.942Z,4.20
2023-11-08T13:33:54.594Z,4.80
2023-11-08T13:36:27.069Z,4.80
2023-11-08T13:38:54.526Z,4.40
2023-11-08T13:41:21.424Z,3.70
2023-11-08T13:43:48.038Z,3.67
2023-11-08T13:46:14.547Z,3.80
2023-11-08T13:48:41.127Z,4.13
2023-11-08T13:51:08.153Z,4.20
2023-11-08T13:53:35.534Z,3.90
2023-11-08T13:56:05.843Z,4.00
2023-11-08T13:58:35.302Z,3.90
2023-11-08T14:01:16.906Z,3.50
2023-11-08T14:03:43.880Z,3.70
2023-11-08T14:06:11.668Z,3.27
2023-11-08T14:08:38.962Z,3.60
2023-11-08T14:11:06.312Z,3.33
2023-11-08T14:13:33.050Z,2.90
2023-11-08T14:16:00.490Z,2.80
2023-11-08T14:18:27.027Z,2.73
2023-11-08T14:20:55.994Z,3.10
2023-11-08T14:23:22.625Z,2.97
2023-11-08T14:25:49.869Z,3.10
2023-11-08T14:28:16.442Z,2.67
2023-11-08T14:30:43.166Z,3.27
2023-11-08T14:33:11.088Z,2.60
2023-11-08T14:35:37.611Z,2.77
2023-11-08T14:38:04.686Z,2.53
2023-11-08T14:40:32.212Z,2.87
2023-11-08T14:42:58.763Z,2.60
2023-11-08T14:45:25.324Z,3.00
2023-11-08T14:47:52.658Z,2.90
2023-11-08T14:50:21.885Z,2.60
2023-11-08T14:52:50.781Z,2.70
2023-11-08T14:55:17.927Z,2.10
2023-11-08T14:57:44.678Z,2.90
2023-11-08T15:00:12.630Z,2.30
2023-11-08T15:02:39.475Z,2.30
2023-11-08T15:05:06.874Z,2.40
2023-11-08T15:09:42.376Z,2.60
2023-11-08T15:10:21.566Z,3.00
2023-11-08T15:12:49.197Z,2.63
2023-11-08T15:15:17.573Z,2.57
2023-11-08T15:17:44.326Z,3.17
2023-11-08T15:20:11.728Z,3.00
2023-11-08T15:22:38.641Z,2.83
2023-11-08T15:25:05.596Z,3.33
2023-11-08T15:27:33.149Z,3.30
2023-11-08T15:30:01.241Z,3.43
2023-11-08T15:32:28.697Z,3.07
2023-11-08T15:34:55.379Z,3.07
2023-11-08T15:37:22.145Z,3.20
2023-11-08T15:39:48.943Z,3.50
2023-11-08T15:42:15.964Z,2.97
2023-11-08T15:44:42.619Z,3.40
2023-11-08T15:50:02.906Z,4.10
2023-11-08T15:52:29.963Z,4.10
2023-11-08T15:54:56.618Z,4.00
2023-11-08T15:57:23.318Z,4.03
2023-11-08T15:59:49.842Z,4.00
2023-11-08T16:02:17.857Z,4.40
2023-11-08T16:04:44.437Z,4.43
2023-11-08T16:07:11.101Z,4.17
2023-11-08T16:09:37.623Z,4.77
2023-11-08T16:12:04.850Z,4.10
2023-11-08T16:14:32.068Z,5.00
2023-11-08T16:16:58.653Z,4.53
2023-11-08T16:19:25.235Z,5.13
2023-11-08T16:21:51.848Z,4.33
2023-11-08T16:24:18.512Z,4.63
2023-11-08T16:26:45.158Z,4.50
2023-11-08T16:29:49.077Z,4.33
2023-11-08T16:32:33.321Z,4.70
2023-11-08T16:34:47.957Z,4.60
2023-11-08T16:37:15.221Z,5.13
2023-11-08T16:39:43.832Z,5.10
2023-11-08T16:42:10.458Z,4.90
2023-11-08T16:44:37.756Z,4.90
2023-11-08T16:47:04.490Z,5.07
2023-11-08T16:49:31.012Z,5.07
2023-11-08T16:51:57.789Z,5.20
2023-11-08T16:54:24.919Z,5.67
2023-11-08T16:56:51.378Z,4.53
2023-11-08T16:59:18.047Z,4.73
2023-11-08T17:01:44.660Z,4.43
2023-11-08T17:04:11.315Z,4.47
2023-11-08T17:06:41.998Z,4.53
2023-11-08T17:09:14.772Z,4.37
2023-11-08T17:11:41.305Z,4.27
2023-11-08T17:14:07.814Z,4.90
2023-11-08T17:16:34.470Z,4.23
2023-11-08T17:19:01.040Z,3.73
2023-11-08T17:21:32.747Z,4.20
2023-11-08T17:23:59.677Z,3.40
2023-11-08T17:26:26.801Z,3.87
2023-11-08T17:28:56.060Z,3.73
2023-11-08T17:31:22.577Z,3.27
2023-11-08T17:33:49.116Z,3.37
2023-11-08T17:36:15.843Z,3.60
2023-11-08T17:38:42.374Z,3.53
2023-11-08T17:41:09.942Z,3.67
2023-11-08T17:43:37.779Z,3.53
2023-11-08T17:46:04.631Z,3.20
2023-11-08T17:48:31.224Z,3.30
2023-11-08T17:50:57.764Z,3.10
2023-11-08T17:53:24.265Z,3.13
2023-11-08T17:55:52.067Z,3.10
2023-11-08T17:58:18.881Z,3.03
2023-11-08T18:00:45.491Z,2.97
2023-11-08T18:03:12.186Z,3.00
2023-11-08T18:05:38.719Z,2.83
2023-11-08T18:08:05.607Z,2.43
2023-11-08T18:10:32.063Z,3.07
2023-11-08T18:12:58.877Z,3.10
2023-11-08T18:15:26.590Z,2.77
2023-11-08T18:17:55.224Z,3.47
2023-11-08T18:20:21.981Z,3.10
2023-11-08T18:22:49.977Z,2.47
2023-11-08T18:25:18.118Z,2.20
2023-11-08T18:27:45.016Z,2.60
2023-11-08T18:30:12.976Z,2.40
2023-11-08T18:32:40.088Z,2.30
2023-11-08T18:35:06.936Z,2.20
2023-11-08T18:37:33.493Z,2.37
2023-11-08T18:40:01.969Z,2.00
2023-11-08T18:42:28.537Z,2.07
2023-11-08T18:44:55.058Z,2.10
2023-11-08T18:47:21.662Z,2.30
2023-11-08T18:49:48.588Z,2.30
2023-11-08T18:52:15.146Z,2.73
2023-11-08T18:54:41.790Z,2.07
2023-11-08T18:57:08.317Z,1.97
2023-11-08T18:59:34.868Z,2.20
2023-11-08T19:02:01.376Z,2.17
2023-11-08T19:04:28.052Z,2.43
2023-11-08T19:06:55.181Z,2.40
2023-11-08T19:09:23.449Z,1.77
2023-11-08T19:11:50.390Z,2.87
2023-11-08T19:14:16.915Z,2.60
2023-11-08T19:16:43.462Z,4.00
2023-11-08T19:19:10.238Z,3.23
2023-11-08T19:21:37.082Z,2.20
2023-11-08T19:24:04.482Z,2.33
2023-11-08T19:26:31.379Z,1.70
2023-11-08T19:28:57.832Z,2.33
2023-11-08T19:31:24.397Z,1.57
2023-11-08T19:33:51.013Z,1.63
2023-11-08T19:36:17.777Z,1.77
2023-11-08T19:38:44.258Z,1.87
2023-11-08T19:41:11.840Z,1.50
2023-11-08T19:43:39.073Z,1.77
2023-11-08T19:46:07.603Z,1.70
2023-11-08T19:48:34.107Z,1.70
2023-11-08T19:51:00.641Z,2.00
2023-11-08T19:53:27.154Z,2.40
2023-11-08T19:55:53.747Z,1.73
2023-11-08T19:58:20.887Z,2.13
2023-11-08T20:00:47.789Z,1.83
2023-11-08T20:03:14.365Z,1.90
2023-11-08T20:05:41.880Z,2.13
2023-11-08T20:08:09.547Z,1.83
2023-11-08T20:10:36.013Z,1.80
2023-11-08T20:13:02.548Z,2.60
2023-11-08T20:15:30.967Z,1.77
2023-11-08T20:17:57.561Z,2.20
2023-11-08T20:20:24.119Z,1.80
2023-11-08T20:22:54.114Z,1.53
2023-11-08T20:25:20.903Z,1.43
2023-11-08T20:27:47.496Z,1.80
2023-11-08T20:30:14.063Z,2.20
2023-11-08T20:32:41.295Z,1.70
2023-11-08T20:35:08.589Z,1.93
2023-11-08T20:37:36.756Z,1.43
2023-11-08T20:40:04.262Z,1.80
2023-11-08T20:42:31.172Z,1.60
2023-11-08T20:44:57.635Z,1.70
2023-11-08T20:47:24.240Z,1.53
2023-11-08T20:49:50.904Z,2.20
2023-11-08T20:52:22.996Z,1.73
2023-11-08T20:54:50.194Z,1.67
2023-11-08T20:57:16.730Z,1.80
2023-11-08T20:59:43.248Z,1.80
2023-11-08T21:02:10.935Z,2.10
2023-11-08T21:04:37.531Z,1.77
2023-11-08T21:07:08.602Z,2.60
2023-11-08T21:09:35.494Z,2.30
2023-11-08T21:12:03.219Z,1.97
2023-11-08T21:14:29.756Z,2.23
2023-11-08T21:16:56.228Z,2.13
2023-11-08T21:19:22.846Z,2.13
2023-11-08T21:21:49.389Z,2.90
2023-11-08T21:24:16.564Z,1.97
2023-11-08T21:26:43.689Z,2.00
2023-11-08T21:29:10.291Z,2.90
2023-11-08T21:31:38.506Z,2.00
2023-11-08T21:34:05.266Z,2.00
2023-11-08T21:36:32.029Z,2.43
2023-11-08T21:38:58.615Z,1.80
2023-11-08T21:41:25.122Z,1.87
2023-11-08T21:43:52.723Z,2.10
2023-11-08T21:46:20.272Z,1.90
2023-11-08T21:48:47.360Z,2.13
2023-11-08T21:51:14.034Z,2.50
2023-11-08T21:53:40.484Z,1.90
2023-11-08T21:56:07.249Z,1.93
2023-11-08T21:58:33.774Z,1.80
2023-11-08T22:01:00.504Z,2.20
2023-11-08T22:03:27.077Z,1.80
2023-11-08T22:05:56.346Z,1.60
2023-11-08T22:08:24.985Z,2.00
2023-11-08T22:10:51.520Z,1.80
2023-11-08T22:13:18.245Z,2.20
2023-11-08T22:15:44.837Z,2.03
2023-11-08T22:18:11.406Z,2.20
2023-11-08T22:20:37.876Z,2.70
2023-11-08T22:23:05.427Z,1.83
2023-11-08T22:25:32.007Z,2.50
2023-11-08T22:28:00.285Z,2.00
2023-11-08T22:30:27.138Z,2.00
2023-11-08T22:32:53.922Z,2.37
2023-11-08T22:35:21.900Z,2.10
2023-11-08T22:37:49.833Z,2.00
2023-11-08T22:40:17.524Z,1.93
2023-11-08T22:42:44.294Z,2.20
2023-11-08T22:45:11.485Z,1.73
2023-11-08T22:47:39.173Z,1.97
2023-11-08T22:50:06.225Z,1.83
2023-11-08T22:52:32.784Z,2.53
2023-11-08T22:55:00.483Z,2.20
2023-11-08T22:57:27.090Z,1.60
2023-11-08T22:59:53.660Z,2.40
2023-11-08T23:02:20.466Z,1.87
2023-11-08T23:04:47.085Z,1.63
2023-11-08T23:07:14.110Z,2.00
2023-11-08T23:09:41.005Z,1.97
2023-11-08T23:12:07.909Z,1.80
2023-11-08T23:14:34.610Z,2.23
2023-11-08T23:17:01.872Z,2.17
2023-11-08T23:19:28.639Z,2.10
2023-11-08T23:21:55.260Z,1.90
2023-11-08T23:24:21.768Z,2.13
2023-11-08T23:26:48.433Z,2.30
2023-11-08T23:29:15.510Z,2.63
2023-11-08T23:31:42.845Z,2.27
2023-11-08T23:34:09.509Z,2.60
2023-11-08T23:36:36.069Z,2.20
2023-11-08T23:39:04.335Z,2.20
2023-11-08T23:41:30.920Z,2.40
2023-11-08T23:43:57.492Z,2.47
2023-11-08T23:46:24.052Z,2.10
2023-11-08T23:48:51.344Z,2.17
2023-11-08T23:51:17.904Z,2.30
2023-11-08T23:53:44.396Z,2.30
2023-11-08T23:56:14.648Z,2.27
2023-11-08T23:58:41.130Z,2.20
